Flight Track Log - Related Links

Times and Time Zones

All times are in EDT time to prevent confusion due to time zone crossing. See the ASQ5106 flight status page for this flight to view local times or setup timezone preferences in your user account.

Time Position Orientation Groundspeed Altitude Reporting Facility
EDT Latitude Longitude Course Direction KTS MPH feet Rate Location/Type
Sun 10:04:39 PM 42.2058 -83.3700 225° Southwest 155 178 1,400  Level Cleveland Center
Sun 10:05:40 PM 42.1683 -83.4208 225° Southwest 228 262 3,000 1,742 Climbing Cleveland Center
Sun 10:06:12 PM 42.1486 -83.4469 224° Southwest 236 272 4,100 2,507 Climbing Cleveland Center
Sun 10:06:47 PM 42.1281 -83.5053 245° Southwest 260 299 5,800 2,557 Climbing Cleveland Center
Sun 10:07:13 PM 42.1222 -83.5403 257° West 265 305 6,700 2,659 Climbing Cleveland Center
Sun 10:08:15 PM 42.1453 -83.6269 290° West 264 304 9,700 1,610 Climbing Cleveland Center
Sun 10:09:16 PM 42.2092 -83.6769 330° Northwest 266 306 10,000 927 Climbing Cleveland Center
Sun 10:10:18 PM 42.2578 -83.7625 308° West 296 341 11,600 1,805 Climbing Cleveland Center
Sun 10:11:19 PM 42.2997 -83.8681 298° West 310 357 13,700 2,244 Climbing Cleveland Center
Sun 10:12:21 PM 42.3417 -83.9808 297° West 330 380 16,200 2,098 Climbing Cleveland Center
Sun 10:13:22 PM 42.3831 -84.0953 296° West 335 386 18,000 878 Climbing Cleveland Center
Sun 10:14:24 PM 42.4353 -84.2422 296° West 360 414 18,000  Level Cleveland Center
Sun 10:15:25 PM 42.4836 -84.3792 296° West 400 460 18,000 -524 Level Cleveland Center
Sun 10:16:30 PM 42.5322 -84.5203 295° West 408 470 16,900 -1,512 Descending Chicago Center
Sun 10:17:32 PM 42.5786 -84.6497 296° West 391 450 14,800 -2,049 Descending Chicago Center
Sun 10:18:33 PM 42.6250 -84.7789 296° West 383 441 12,700 -2,066 Descending Chicago Center
Sun 10:19:34 PM 42.6697 -84.9089 295° West 383 441 10,600 -1,328 Descending Chicago Center
Sun 10:20:35 PM 42.6978 -85.0217 289° West 329 379 10,000 -1,377 Descending Chicago Center
Sun 10:21:36 PM 42.7200 -85.1361 285° West 271 312 7,800 -2,195 Descending Chicago Center
Sun 10:22:38 PM 42.7367 -85.2244 284° West 250 288 5,500 -2,244 Descending Chicago Center
Sun 10:23:39 PM 42.7542 -85.3131 285° West 245 282 3,200 -1,475 Descending Chicago Center
Sun 10:24:40 PM 42.7700 -85.4003 284° West 244 281 2,500 -344 Descending Chicago Center
Sun 10:25:41 PM 42.7881 -85.4792 287° West 228 262 2,500 -393 Level Chicago Center
Sun 10:26:42 PM 42.8292 -85.5075 333° Northwest 187 215 1,700 -738 Descending Chicago Center
Sun 10:27:43 PM 42.8736 -85.5167 351° North 167 192 1,000 -689 Descending Chicago Center
Sun 10:29:00 PM 42.8667 -85.5167 289° West  Level FlightAware Approximate

Login

Don't have an account? Register now (free) for customized features, flight alerts, and more!